sensor_id;sensor_type;location;lat;lon;timestamp;P1;durP1;ratioP1;P2;durP2;ratioP2
11990;SDS011;6055;52.522;13.446;2022-07-03T00:00:24;3.72;;;3.40;;
11990;SDS011;6055;52.522;13.446;2022-07-03T00:02:50;3.92;;;3.33;;
11990;SDS011;6055;52.522;13.446;2022-07-03T00:05:15;3.65;;;3.35;;
11990;SDS011;6055;52.522;13.446;2022-07-03T00:07:41;3.83;;;3.40;;
11990;SDS011;6055;52.522;13.446;2022-07-03T00:10:07;4.95;;;3.70;;
11990;SDS011;6055;52.522;13.446;2022-07-03T00:12:32;4.22;;;3.70;;
11990;SDS011;6055;52.522;13.446;2022-07-03T00:14:58;4.05;;;3.60;;
11990;SDS011;6055;52.522;13.446;2022-07-03T00:17:24;3.47;;;3.15;;
11990;SDS011;6055;52.522;13.446;2022-07-03T00:19:49;4.18;;;3.55;;
11990;SDS011;6055;52.522;13.446;2022-07-03T00:22:15;3.88;;;3.30;;
11990;SDS011;6055;52.522;13.446;2022-07-03T00:24:44;3.88;;;3.30;;
11990;SDS011;6055;52.522;13.446;2022-07-03T00:27:19;6.18;;;4.50;;
11990;SDS011;6055;52.522;13.446;2022-07-03T00:29:46;5.43;;;4.18;;
11990;SDS011;6055;52.522;13.446;2022-07-03T00:32:18;5.22;;;3.85;;
11990;SDS011;6055;52.522;13.446;2022-07-03T00:34:47;4.05;;;3.65;;
11990;SDS011;6055;52.522;13.446;2022-07-03T00:37:15;4.18;;;3.78;;
11990;SDS011;6055;52.522;13.446;2022-07-03T00:39:42;7.75;;;5.22;;
11990;SDS011;6055;52.522;13.446;2022-07-03T00:42:09;5.25;;;4.10;;
11990;SDS011;6055;52.522;13.446;2022-07-03T00:44:43;5.78;;;4.32;;
11990;SDS011;6055;52.522;13.446;2022-07-03T00:47:15;3.85;;;3.15;;
11990;SDS011;6055;52.522;13.446;2022-07-03T00:49:43;3.83;;;3.35;;
11990;SDS011;6055;52.522;13.446;2022-07-03T00:52:11;4.90;;;3.70;;
11990;SDS011;6055;52.522;13.446;2022-07-03T00:54:38;3.60;;;3.30;;
11990;SDS011;6055;52.522;13.446;2022-07-03T00:57:08;5.07;;;3.50;;
11990;SDS011;6055;52.522;13.446;2022-07-03T00:59:39;4.32;;;3.38;;
11990;SDS011;6055;52.522;13.446;2022-07-03T01:02:05;4.65;;;3.42;;
11990;SDS011;6055;52.522;13.446;2022-07-03T01:04:36;4.15;;;3.72;;
11990;SDS011;6055;52.522;13.446;2022-07-03T01:07:30;5.32;;;3.75;;
11990;SDS011;6055;52.522;13.446;2022-07-03T01:10:16;3.88;;;3.47;;
11990;SDS011;6055;52.522;13.446;2022-07-03T01:18:27;4.30;;;3.90;;
11990;SDS011;6055;52.522;13.446;2022-07-03T01:21:09;4.07;;;3.35;;
11990;SDS011;6055;52.522;13.446;2022-07-03T01:23:46;3.78;;;3.45;;
11990;SDS011;6055;52.522;13.446;2022-07-03T01:26:27;5.03;;;3.60;;
11990;SDS011;6055;52.522;13.446;2022-07-03T01:28:55;3.70;;;3.30;;
11990;SDS011;6055;52.522;13.446;2022-07-03T01:31:27;3.67;;;3.13;;
11990;SDS011;6055;52.522;13.446;2022-07-03T01:33:55;3.97;;;3.60;;
11990;SDS011;6055;52.522;13.446;2022-07-03T01:36:23;3.80;;;3.42;;
11990;SDS011;6055;52.522;13.446;2022-07-03T01:38:50;3.90;;;3.42;;
11990;SDS011;6055;52.522;13.446;2022-07-03T01:41:16;3.97;;;3.35;;
11990;SDS011;6055;52.522;13.446;2022-07-03T01:43:49;4.03;;;3.72;;
11990;SDS011;6055;52.522;13.446;2022-07-03T01:46:21;4.13;;;3.72;;
11990;SDS011;6055;52.522;13.446;2022-07-03T01:48:51;4.80;;;3.78;;
11990;SDS011;6055;52.522;13.446;2022-07-03T01:51:19;4.18;;;3.78;;
11990;SDS011;6055;52.522;13.446;2022-07-03T01:53:46;4.25;;;3.60;;
11990;SDS011;6055;52.522;13.446;2022-07-03T01:56:16;4.15;;;3.75;;
11990;SDS011;6055;52.522;13.446;2022-07-03T01:58:44;5.32;;;3.63;;
11990;SDS011;6055;52.522;13.446;2022-07-03T02:06:40;3.75;;;3.45;;
11990;SDS011;6055;52.522;13.446;2022-07-03T02:09:11;6.00;;;3.83;;
11990;SDS011;6055;52.522;13.446;2022-07-03T02:11:39;4.22;;;3.85;;
11990;SDS011;6055;52.522;13.446;2022-07-03T02:14:16;4.28;;;3.72;;
11990;SDS011;6055;52.522;13.446;2022-07-03T02:19:33;3.83;;;3.22;;
11990;SDS011;6055;52.522;13.446;2022-07-03T02:22:07;4.72;;;3.53;;
11990;SDS011;6055;52.522;13.446;2022-07-03T02:24:37;4.97;;;3.72;;
11990;SDS011;6055;52.522;13.446;2022-07-03T02:27:09;4.82;;;3.75;;
11990;SDS011;6055;52.522;13.446;2022-07-03T02:29:41;4.15;;;3.58;;
11990;SDS011;6055;52.522;13.446;2022-07-03T02:32:12;4.20;;;3.80;;
11990;SDS011;6055;52.522;13.446;2022-07-03T02:34:42;3.70;;;3.40;;
11990;SDS011;6055;52.522;13.446;2022-07-03T02:37:15;4.18;;;3.78;;
11990;SDS011;6055;52.522;13.446;2022-07-03T02:39:48;5.70;;;3.90;;
11990;SDS011;6055;52.522;13.446;2022-07-03T02:42:19;4.00;;;3.60;;
11990;SDS011;6055;52.522;13.446;2022-07-03T02:44:56;4.18;;;3.75;;
11990;SDS011;6055;52.522;13.446;2022-07-03T02:54:59;5.28;;;3.38;;
11990;SDS011;6055;52.522;13.446;2022-07-03T02:57:39;4.03;;;3.63;;
11990;SDS011;6055;52.522;13.446;2022-07-03T03:00:06;4.60;;;3.40;;
11990;SDS011;6055;52.522;13.446;2022-07-03T03:10:39;4.95;;;4.45;;
11990;SDS011;6055;52.522;13.446;2022-07-03T03:13:09;3.83;;;3.35;;
11990;SDS011;6055;52.522;13.446;2022-07-03T03:15:37;4.45;;;4.05;;
11990;SDS011;6055;52.522;13.446;2022-07-03T03:18:05;4.30;;;3.38;;
11990;SDS011;6055;52.522;13.446;2022-07-03T03:20:35;4.00;;;3.60;;
11990;SDS011;6055;52.522;13.446;2022-07-03T03:25:35;4.82;;;3.47;;
11990;SDS011;6055;52.522;13.446;2022-07-03T03:28:02;5.32;;;3.83;;
11990;SDS011;6055;52.522;13.446;2022-07-03T03:30:28;4.20;;;3.70;;
11990;SDS011;6055;52.522;13.446;2022-07-03T03:32:54;4.45;;;3.78;;
11990;SDS011;6055;52.522;13.446;2022-07-03T03:35:23;5.50;;;3.92;;
11990;SDS011;6055;52.522;13.446;2022-07-03T03:37:48;4.13;;;3.72;;
11990;SDS011;6055;52.522;13.446;2022-07-03T03:40:14;4.25;;;3.85;;
11990;SDS011;6055;52.522;13.446;2022-07-03T03:42:41;4.35;;;3.90;;
11990;SDS011;6055;52.522;13.446;2022-07-03T03:45:07;7.07;;;4.13;;
11990;SDS011;6055;52.522;13.446;2022-07-03T03:47:33;4.82;;;3.90;;
11990;SDS011;6055;52.522;13.446;2022-07-03T03:49:59;4.43;;;3.70;;
11990;SDS011;6055;52.522;13.446;2022-07-03T03:52:25;7.40;;;3.72;;
11990;SDS011;6055;52.522;13.446;2022-07-03T03:54:51;4.00;;;3.60;;
11990;SDS011;6055;52.522;13.446;2022-07-03T03:57:23;4.57;;;3.90;;
11990;SDS011;6055;52.522;13.446;2022-07-03T03:59:49;4.25;;;3.80;;
11990;SDS011;6055;52.522;13.446;2022-07-03T04:02:16;4.35;;;3.95;;
11990;SDS011;6055;52.522;13.446;2022-07-03T04:04:42;4.90;;;3.38;;
11990;SDS011;6055;52.522;13.446;2022-07-03T04:07:09;4.07;;;3.60;;
11990;SDS011;6055;52.522;13.446;2022-07-03T04:09:34;4.55;;;3.58;;
11990;SDS011;6055;52.522;13.446;2022-07-03T04:12:00;5.10;;;3.88;;
11990;SDS011;6055;52.522;13.446;2022-07-03T04:14:26;4.70;;;3.92;;
11990;SDS011;6055;52.522;13.446;2022-07-03T04:16:51;5.22;;;4.10;;
11990;SDS011;6055;52.522;13.446;2022-07-03T04:19:17;5.53;;;3.70;;
11990;SDS011;6055;52.522;13.446;2022-07-03T04:21:42;4.00;;;3.60;;
11990;SDS011;6055;52.522;13.446;2022-07-03T04:24:08;3.90;;;3.60;;
11990;SDS011;6055;52.522;13.446;2022-07-03T04:26:34;4.28;;;3.88;;
11990;SDS011;6055;52.522;13.446;2022-07-03T04:28:59;4.47;;;4.07;;
11990;SDS011;6055;52.522;13.446;2022-07-03T04:31:25;4.10;;;3.70;;
11990;SDS011;6055;52.522;13.446;2022-07-03T04:33:50;3.95;;;3.65;;
11990;SDS011;6055;52.522;13.446;2022-07-03T04:36:16;4.13;;;3.42;;
11990;SDS011;6055;52.522;13.446;2022-07-03T04:38:42;4.93;;;3.67;;
11990;SDS011;6055;52.522;13.446;2022-07-03T04:41:08;3.65;;;3.35;;
11990;SDS011;6055;52.522;13.446;2022-07-03T04:43:33;4.13;;;3.72;;
11990;SDS011;6055;52.522;13.446;2022-07-03T04:45:59;4.30;;;3.55;;
11990;SDS011;6055;52.522;13.446;2022-07-03T04:48:24;4.25;;;3.85;;
11990;SDS011;6055;52.522;13.446;2022-07-03T04:50:52;5.90;;;3.95;;
11990;SDS011;6055;52.522;13.446;2022-07-03T04:53:18;4.60;;;3.88;;
11990;SDS011;6055;52.522;13.446;2022-07-03T04:55:43;4.38;;;3.83;;
11990;SDS011;6055;52.522;13.446;2022-07-03T04:58:09;4.32;;;3.90;;
11990;SDS011;6055;52.522;13.446;2022-07-03T05:00:34;3.50;;;3.20;;
11990;SDS011;6055;52.522;13.446;2022-07-03T05:03:00;4.78;;;3.80;;
11990;SDS011;6055;52.522;13.446;2022-07-03T05:05:25;3.80;;;3.40;;
11990;SDS011;6055;52.522;13.446;2022-07-03T05:07:51;4.65;;;4.03;;
11990;SDS011;6055;52.522;13.446;2022-07-03T05:10:16;4.60;;;4.07;;
11990;SDS011;6055;52.522;13.446;2022-07-03T05:12:42;4.82;;;3.40;;
11990;SDS011;6055;52.522;13.446;2022-07-03T05:15:07;3.60;;;3.30;;
11990;SDS011;6055;52.522;13.446;2022-07-03T05:17:34;4.28;;;3.88;;
11990;SDS011;6055;52.522;13.446;2022-07-03T05:20:00;4.80;;;3.78;;
11990;SDS011;6055;52.522;13.446;2022-07-03T05:22:45;3.97;;;3.55;;
11990;SDS011;6055;52.522;13.446;2022-07-03T05:25:10;5.00;;;3.78;;
11990;SDS011;6055;52.522;13.446;2022-07-03T05:27:36;4.95;;;4.10;;
11990;SDS011;6055;52.522;13.446;2022-07-03T05:30:03;5.18;;;3.53;;
11990;SDS011;6055;52.522;13.446;2022-07-03T05:32:29;4.40;;;3.67;;
11990;SDS011;6055;52.522;13.446;2022-07-03T05:34:55;4.15;;;3.50;;
11990;SDS011;6055;52.522;13.446;2022-07-03T05:37:20;4.22;;;3.53;;
11990;SDS011;6055;52.522;13.446;2022-07-03T05:39:46;5.80;;;3.53;;
11990;SDS011;6055;52.522;13.446;2022-07-03T05:42:11;3.53;;;3.22;;
11990;SDS011;6055;52.522;13.446;2022-07-03T05:44:37;3.63;;;3.33;;
11990;SDS011;6055;52.522;13.446;2022-07-03T05:47:02;3.92;;;2.67;;
11990;SDS011;6055;52.522;13.446;2022-07-03T05:49:28;3.22;;;2.97;;
11990;SDS011;6055;52.522;13.446;2022-07-03T05:51:53;3.28;;;2.92;;
11990;SDS011;6055;52.522;13.446;2022-07-03T05:54:19;3.45;;;3.15;;
11990;SDS011;6055;52.522;13.446;2022-07-03T05:56:44;3.83;;;3.22;;
11990;SDS011;6055;52.522;13.446;2022-07-03T05:59:10;2.88;;;2.60;;
11990;SDS011;6055;52.522;13.446;2022-07-03T06:01:36;4.97;;;3.03;;
11990;SDS011;6055;52.522;13.446;2022-07-03T06:04:01;4.10;;;3.10;;
11990;SDS011;6055;52.522;13.446;2022-07-03T06:06:27;4.75;;;3.25;;
11990;SDS011;6055;52.522;13.446;2022-07-03T06:08:52;3.15;;;2.85;;
11990;SDS011;6055;52.522;13.446;2022-07-03T06:11:18;4.03;;;2.90;;
11990;SDS011;6055;52.522;13.446;2022-07-03T06:13:44;3.40;;;2.60;;
11990;SDS011;6055;52.522;13.446;2022-07-03T06:16:09;2.58;;;2.38;;
11990;SDS011;6055;52.522;13.446;2022-07-03T06:18:35;3.15;;;2.80;;
11990;SDS011;6055;52.522;13.446;2022-07-03T06:21:00;3.75;;;3.00;;
11990;SDS011;6055;52.522;13.446;2022-07-03T06:23:26;2.95;;;2.75;;
11990;SDS011;6055;52.522;13.446;2022-07-03T06:25:51;4.30;;;3.20;;
11990;SDS011;6055;52.522;13.446;2022-07-03T06:28:17;3.53;;;2.85;;
11990;SDS011;6055;52.522;13.446;2022-07-03T06:30:42;3.33;;;2.97;;
11990;SDS011;6055;52.522;13.446;2022-07-03T06:33:08;3.00;;;2.70;;
11990;SDS011;6055;52.522;13.446;2022-07-03T06:35:33;3.45;;;2.90;;
11990;SDS011;6055;52.522;13.446;2022-07-03T06:38:02;3.47;;;2.95;;
11990;SDS011;6055;52.522;13.446;2022-07-03T06:40:28;3.15;;;2.80;;
11990;SDS011;6055;52.522;13.446;2022-07-03T06:42:54;3.05;;;2.75;;
11990;SDS011;6055;52.522;13.446;2022-07-03T06:45:20;3.00;;;2.70;;
11990;SDS011;6055;52.522;13.446;2022-07-03T06:47:45;3.03;;;2.78;;
11990;SDS011;6055;52.522;13.446;2022-07-03T06:50:11;3.25;;;2.95;;
11990;SDS011;6055;52.522;13.446;2022-07-03T06:52:37;3.00;;;2.80;;
11990;SDS011;6055;52.522;13.446;2022-07-03T06:55:02;3.40;;;3.00;;
11990;SDS011;6055;52.522;13.446;2022-07-03T06:57:28;3.30;;;2.75;;
11990;SDS011;6055;52.522;13.446;2022-07-03T06:59:54;3.00;;;2.70;;
11990;SDS011;6055;52.522;13.446;2022-07-03T07:02:19;3.72;;;2.90;;
11990;SDS011;6055;52.522;13.446;2022-07-03T07:04:45;2.60;;;2.40;;
11990;SDS011;6055;52.522;13.446;2022-07-03T07:07:10;5.57;;;2.80;;
11990;SDS011;6055;52.522;13.446;2022-07-03T07:09:36;3.35;;;3.05;;
11990;SDS011;6055;52.522;13.446;2022-07-03T07:12:01;3.03;;;2.67;;
11990;SDS011;6055;52.522;13.446;2022-07-03T07:14:27;4.68;;;3.17;;
11990;SDS011;6055;52.522;13.446;2022-07-03T07:16:53;3.38;;;2.30;;
11990;SDS011;6055;52.522;13.446;2022-07-03T07:19:18;3.65;;;2.85;;
11990;SDS011;6055;52.522;13.446;2022-07-03T07:21:44;3.45;;;2.67;;
11990;SDS011;6055;52.522;13.446;2022-07-03T07:24:10;2.78;;;2.58;;
11990;SDS011;6055;52.522;13.446;2022-07-03T07:26:36;2.65;;;2.45;;
11990;SDS011;6055;52.522;13.446;2022-07-03T07:29:02;2.78;;;2.42;;
11990;SDS011;6055;52.522;13.446;2022-07-03T07:31:29;2.72;;;2.50;;
11990;SDS011;6055;52.522;13.446;2022-07-03T07:33:55;3.30;;;2.90;;
11990;SDS011;6055;52.522;13.446;2022-07-03T07:36:21;3.83;;;2.60;;
11990;SDS011;6055;52.522;13.446;2022-07-03T07:38:46;2.70;;;2.50;;
11990;SDS011;6055;52.522;13.446;2022-07-03T07:41:12;2.60;;;2.40;;
11990;SDS011;6055;52.522;13.446;2022-07-03T07:43:37;3.00;;;2.58;;
11990;SDS011;6055;52.522;13.446;2022-07-03T07:46:03;4.75;;;2.80;;
11990;SDS011;6055;52.522;13.446;2022-07-03T07:48:28;3.25;;;2.83;;
11990;SDS011;6055;52.522;13.446;2022-07-03T07:50:55;3.22;;;2.63;;
11990;SDS011;6055;52.522;13.446;2022-07-03T07:53:20;2.60;;;2.40;;
11990;SDS011;6055;52.522;13.446;2022-07-03T07:55:46;2.58;;;2.38;;
11990;SDS011;6055;52.522;13.446;2022-07-03T07:58:11;2.55;;;2.35;;
11990;SDS011;6055;52.522;13.446;2022-07-03T08:00:37;2.85;;;2.55;;
11990;SDS011;6055;52.522;13.446;2022-07-03T08:03:22;2.50;;;2.30;;
11990;SDS011;6055;52.522;13.446;2022-07-03T08:06:06;2.53;;;2.33;;
11990;SDS011;6055;52.522;13.446;2022-07-03T08:08:32;2.78;;;2.55;;
11990;SDS011;6055;52.522;13.446;2022-07-03T08:10:57;3.05;;;2.63;;
11990;SDS011;6055;52.522;13.446;2022-07-03T08:13:23;3.00;;;2.10;;
11990;SDS011;6055;52.522;13.446;2022-07-03T08:15:48;4.38;;;2.70;;
11990;SDS011;6055;52.522;13.446;2022-07-03T08:18:14;2.67;;;2.47;;
11990;SDS011;6055;52.522;13.446;2022-07-03T08:20:40;4.13;;;2.70;;
11990;SDS011;6055;52.522;13.446;2022-07-03T08:23:05;3.45;;;2.53;;
11990;SDS011;6055;52.522;13.446;2022-07-03T08:25:31;3.08;;;2.40;;
11990;SDS011;6055;52.522;13.446;2022-07-03T08:27:57;2.90;;;2.40;;
11990;SDS011;6055;52.522;13.446;2022-07-03T08:30:23;2.60;;;2.40;;
11990;SDS011;6055;52.522;13.446;2022-07-03T08:32:50;2.65;;;2.42;;
11990;SDS011;6055;52.522;13.446;2022-07-03T08:35:18;2.92;;;2.33;;
11990;SDS011;6055;52.522;13.446;2022-07-03T08:37:44;2.55;;;2.30;;
11990;SDS011;6055;52.522;13.446;2022-07-03T08:40:12;2.50;;;2.30;;
11990;SDS011;6055;52.522;13.446;2022-07-03T08:42:43;2.38;;;2.17;;
11990;SDS011;6055;52.522;13.446;2022-07-03T08:45:13;2.60;;;2.40;;
11990;SDS011;6055;52.522;13.446;2022-07-03T08:47:41;2.88;;;2.30;;
11990;SDS011;6055;52.522;13.446;2022-07-03T08:50:11;2.65;;;2.45;;
11990;SDS011;6055;52.522;13.446;2022-07-03T08:52:39;3.10;;;2.00;;
11990;SDS011;6055;52.522;13.446;2022-07-03T08:55:06;2.97;;;2.30;;
11990;SDS011;6055;52.522;13.446;2022-07-03T08:57:32;2.45;;;2.10;;
11990;SDS011;6055;52.522;13.446;2022-07-03T09:00:01;3.20;;;2.33;;
11990;SDS011;6055;52.522;13.446;2022-07-03T09:02:32;2.78;;;2.42;;
11990;SDS011;6055;52.522;13.446;2022-07-03T09:04:58;2.22;;;2.03;;
11990;SDS011;6055;52.522;13.446;2022-07-03T09:07:26;2.45;;;2.25;;
11990;SDS011;6055;52.522;13.446;2022-07-03T09:09:53;2.45;;;2.25;;
11990;SDS011;6055;52.522;13.446;2022-07-03T09:12:19;2.60;;;2.08;;
11990;SDS011;6055;52.522;13.446;2022-07-03T09:14:45;2.20;;;2.00;;
11990;SDS011;6055;52.522;13.446;2022-07-03T09:17:11;2.20;;;2.00;;
11990;SDS011;6055;52.522;13.446;2022-07-03T09:19:40;2.67;;;2.33;;
11990;SDS011;6055;52.522;13.446;2022-07-03T09:22:50;2.38;;;2.17;;
11990;SDS011;6055;52.522;13.446;2022-07-03T09:27:27;2.28;;;2.08;;
11990;SDS011;6055;52.522;13.446;2022-07-03T09:29:57;2.60;;;2.38;;
11990;SDS011;6055;52.522;13.446;2022-07-03T09:32:24;2.78;;;2.00;;
11990;SDS011;6055;52.522;13.446;2022-07-03T09:35:02;2.13;;;1.95;;
11990;SDS011;6055;52.522;13.446;2022-07-03T09:37:34;2.10;;;1.90;;
11990;SDS011;6055;52.522;13.446;2022-07-03T09:39:59;2.15;;;1.98;;
11990;SDS011;6055;52.522;13.446;2022-07-03T09:42:27;1.95;;;1.80;;
11990;SDS011;6055;52.522;13.446;2022-07-03T09:44:53;2.22;;;1.92;;
11990;SDS011;6055;52.522;13.446;2022-07-03T09:47:23;2.85;;;2.03;;
11990;SDS011;6055;52.522;13.446;2022-07-03T09:49:54;2.45;;;1.90;;
11990;SDS011;6055;52.522;13.446;2022-07-03T09:55:01;3.15;;;2.20;;
11990;SDS011;6055;52.522;13.446;2022-07-03T09:57:33;2.65;;;2.25;;
11990;SDS011;6055;52.522;13.446;2022-07-03T10:02:52;2.75;;;2.30;;
11990;SDS011;6055;52.522;13.446;2022-07-03T10:05:22;2.13;;;1.80;;
11990;SDS011;6055;52.522;13.446;2022-07-03T10:08:00;2.10;;;1.90;;
11990;SDS011;6055;52.522;13.446;2022-07-03T10:10:28;2.00;;;1.90;;
11990;SDS011;6055;52.522;13.446;2022-07-03T10:12:58;2.10;;;1.90;;
11990;SDS011;6055;52.522;13.446;2022-07-03T10:15:25;1.98;;;1.80;;
11990;SDS011;6055;52.522;13.446;2022-07-03T10:17:52;2.10;;;1.90;;
11990;SDS011;6055;52.522;13.446;2022-07-03T10:20:22;2.72;;;1.92;;
11990;SDS011;6055;52.522;13.446;2022-07-03T10:23:09;2.20;;;1.88;;
11990;SDS011;6055;52.522;13.446;2022-07-03T10:25:34;2.20;;;2.00;;
11990;SDS011;6055;52.522;13.446;2022-07-03T10:28:00;3.17;;;1.90;;
11990;SDS011;6055;52.522;13.446;2022-07-03T10:30:27;1.90;;;1.80;;
11990;SDS011;6055;52.522;13.446;2022-07-03T10:32:54;2.28;;;1.90;;
11990;SDS011;6055;52.522;13.446;2022-07-03T10:35:26;2.45;;;2.00;;
11990;SDS011;6055;52.522;13.446;2022-07-03T10:40:31;3.13;;;1.90;;
11990;SDS011;6055;52.522;13.446;2022-07-03T10:43:30;2.65;;;1.92;;
11990;SDS011;6055;52.522;13.446;2022-07-03T10:46:23;2.22;;;2.03;;
11990;SDS011;6055;52.522;13.446;2022-07-03T10:48:59;2.33;;;2.10;;
11990;SDS011;6055;52.522;13.446;2022-07-03T10:51:25;2.22;;;2.03;;
11990;SDS011;6055;52.522;13.446;2022-07-03T10:57:04;2.15;;;2.03;;
11990;SDS011;6055;52.522;13.446;2022-07-03T11:07:27;2.13;;;1.92;;
11990;SDS011;6055;52.522;13.446;2022-07-03T11:21:08;2.38;;;1.77;;
11990;SDS011;6055;52.522;13.446;2022-07-03T11:33:42;1.95;;;1.80;;
11990;SDS011;6055;52.522;13.446;2022-07-03T11:38:52;1.83;;;1.65;;
11990;SDS011;6055;52.522;13.446;2022-07-03T11:41:25;3.33;;;2.03;;
11990;SDS011;6055;52.522;13.446;2022-07-03T11:43:53;2.47;;;2.00;;
11990;SDS011;6055;52.522;13.446;2022-07-03T11:46:27;1.92;;;1.73;;
11990;SDS011;6055;52.522;13.446;2022-07-03T11:49:06;2.28;;;1.92;;
11990;SDS011;6055;52.522;13.446;2022-07-03T11:51:40;2.58;;;2.03;;
11990;SDS011;6055;52.522;13.446;2022-07-03T11:54:06;2.10;;;1.92;;
11990;SDS011;6055;52.522;13.446;2022-07-03T11:56:33;2.22;;;1.75;;
11990;SDS011;6055;52.522;13.446;2022-07-03T11:59:00;1.90;;;1.77;;
11990;SDS011;6055;52.522;13.446;2022-07-03T12:01:29;2.00;;;1.90;;
11990;SDS011;6055;52.522;13.446;2022-07-03T12:04:09;1.80;;;1.70;;
11990;SDS011;6055;52.522;13.446;2022-07-03T12:09:34;2.10;;;1.90;;
11990;SDS011;6055;52.522;13.446;2022-07-03T12:14:47;2.00;;;1.85;;
11990;SDS011;6055;52.522;13.446;2022-07-03T12:17:15;2.40;;;2.20;;
11990;SDS011;6055;52.522;13.446;2022-07-03T12:22:29;2.50;;;1.75;;
11990;SDS011;6055;52.522;13.446;2022-07-03T12:27:28;2.05;;;1.80;;
11990;SDS011;6055;52.522;13.446;2022-07-03T12:29:55;1.95;;;1.80;;
11990;SDS011;6055;52.522;13.446;2022-07-03T12:32:21;2.20;;;1.85;;
11990;SDS011;6055;52.522;13.446;2022-07-03T12:34:47;2.75;;;1.95;;
11990;SDS011;6055;52.522;13.446;2022-07-03T12:37:13;1.95;;;1.83;;
11990;SDS011;6055;52.522;13.446;2022-07-03T12:42:14;2.17;;;1.95;;
11990;SDS011;6055;52.522;13.446;2022-07-03T12:44:40;1.98;;;1.80;;
11990;SDS011;6055;52.522;13.446;2022-07-03T12:47:06;1.90;;;1.80;;
11990;SDS011;6055;52.522;13.446;2022-07-03T12:49:32;1.83;;;1.73;;
11990;SDS011;6055;52.522;13.446;2022-07-03T12:51:57;2.10;;;1.90;;
11990;SDS011;6055;52.522;13.446;2022-07-03T12:54:35;1.98;;;1.77;;
11990;SDS011;6055;52.522;13.446;2022-07-03T12:57:08;2.15;;;1.95;;
11990;SDS011;6055;52.522;13.446;2022-07-03T13:00:10;1.85;;;1.75;;
11990;SDS011;6055;52.522;13.446;2022-07-03T13:02:38;1.80;;;1.60;;
11990;SDS011;6055;52.522;13.446;2022-07-03T13:05:13;2.00;;;1.80;;
11990;SDS011;6055;52.522;13.446;2022-07-03T13:07:41;2.03;;;1.83;;
11990;SDS011;6055;52.522;13.446;2022-07-03T13:10:07;1.45;;;1.35;;
11990;SDS011;6055;52.522;13.446;2022-07-03T13:12:34;1.80;;;1.60;;
11990;SDS011;6055;52.522;13.446;2022-07-03T13:15:00;1.40;;;1.30;;
11990;SDS011;6055;52.522;13.446;2022-07-03T13:20:15;2.15;;;1.95;;
11990;SDS011;6055;52.522;13.446;2022-07-03T13:22:41;1.95;;;1.80;;
11990;SDS011;6055;52.522;13.446;2022-07-03T13:25:06;2.47;;;2.28;;
11990;SDS011;6055;52.522;13.446;2022-07-03T13:27:32;2.17;;;2.03;;
11990;SDS011;6055;52.522;13.446;2022-07-03T13:29:58;2.30;;;2.10;;
11990;SDS011;6055;52.522;13.446;2022-07-03T13:32:23;2.30;;;2.15;;
11990;SDS011;6055;52.522;13.446;2022-07-03T13:34:48;1.70;;;1.60;;
11990;SDS011;6055;52.522;13.446;2022-07-03T13:37:14;2.00;;;1.80;;
11990;SDS011;6055;52.522;13.446;2022-07-03T13:39:39;1.98;;;1.77;;
11990;SDS011;6055;52.522;13.446;2022-07-03T13:42:05;2.22;;;1.63;;
11990;SDS011;6055;52.522;13.446;2022-07-03T13:44:35;2.53;;;2.00;;
11990;SDS011;6055;52.522;13.446;2022-07-03T13:47:01;2.05;;;1.92;;
11990;SDS011;6055;52.522;13.446;2022-07-03T13:49:27;2.30;;;2.10;;
11990;SDS011;6055;52.522;13.446;2022-07-03T13:51:52;2.10;;;1.90;;
11990;SDS011;6055;52.522;13.446;2022-07-03T13:54:18;1.70;;;1.60;;
11990;SDS011;6055;52.522;13.446;2022-07-03T13:56:44;2.28;;;1.80;;
11990;SDS011;6055;52.522;13.446;2022-07-03T13:59:10;2.13;;;1.90;;
11990;SDS011;6055;52.522;13.446;2022-07-03T14:01:37;2.00;;;1.90;;
11990;SDS011;6055;52.522;13.446;2022-07-03T14:04:02;1.80;;;1.70;;
11990;SDS011;6055;52.522;13.446;2022-07-03T14:06:28;2.05;;;1.85;;
11990;SDS011;6055;52.522;13.446;2022-07-03T14:08:53;1.77;;;1.65;;
11990;SDS011;6055;52.522;13.446;2022-07-03T14:11:19;1.65;;;1.25;;
11990;SDS011;6055;52.522;13.446;2022-07-03T14:13:44;1.67;;;1.58;;
11990;SDS011;6055;52.522;13.446;2022-07-03T14:16:10;1.83;;;1.63;;
11990;SDS011;6055;52.522;13.446;2022-07-03T14:18:37;1.90;;;1.80;;
11990;SDS011;6055;52.522;13.446;2022-07-03T14:21:02;2.38;;;1.75;;
11990;SDS011;6055;52.522;13.446;2022-07-03T14:23:30;1.73;;;1.40;;
11990;SDS011;6055;52.522;13.446;2022-07-03T14:25:57;1.88;;;1.77;;
11990;SDS011;6055;52.522;13.446;2022-07-03T14:28:23;2.00;;;1.90;;
11990;SDS011;6055;52.522;13.446;2022-07-03T14:31:07;1.88;;;1.63;;
11990;SDS011;6055;52.522;13.446;2022-07-03T14:33:52;1.65;;;1.55;;
11990;SDS011;6055;52.522;13.446;2022-07-03T14:36:18;1.88;;;1.70;;
11990;SDS011;6055;52.522;13.446;2022-07-03T14:38:44;1.83;;;1.73;;
11990;SDS011;6055;52.522;13.446;2022-07-03T14:41:09;2.25;;;1.60;;
11990;SDS011;6055;52.522;13.446;2022-07-03T14:43:35;2.42;;;1.70;;
11990;SDS011;6055;52.522;13.446;2022-07-03T14:46:01;4.60;;;3.53;;
11990;SDS011;6055;52.522;13.446;2022-07-03T14:48:26;1.80;;;1.70;;
11990;SDS011;6055;52.522;13.446;2022-07-03T14:50:52;1.98;;;1.83;;
11990;SDS011;6055;52.522;13.446;2022-07-03T14:53:21;2.00;;;1.80;;
11990;SDS011;6055;52.522;13.446;2022-07-03T14:55:47;1.88;;;1.77;;
11990;SDS011;6055;52.522;13.446;2022-07-03T15:00:42;17.75;;;11.25;;
11990;SDS011;6055;52.522;13.446;2022-07-03T15:03:18;2.88;;;2.53;;
11990;SDS011;6055;52.522;13.446;2022-07-03T15:05:53;6.40;;;3.15;;
11990;SDS011;6055;52.522;13.446;2022-07-03T15:10:55;2.15;;;1.88;;
11990;SDS011;6055;52.522;13.446;2022-07-03T15:13:26;1.80;;;1.60;;
11990;SDS011;6055;52.522;13.446;2022-07-03T15:15:52;1.70;;;1.60;;
11990;SDS011;6055;52.522;13.446;2022-07-03T15:18:19;2.97;;;1.70;;
11990;SDS011;6055;52.522;13.446;2022-07-03T15:20:45;1.63;;;1.52;;
11990;SDS011;6055;52.522;13.446;2022-07-03T15:23:12;2.05;;;1.85;;
11990;SDS011;6055;52.522;13.446;2022-07-03T15:25:38;3.60;;;1.88;;
11990;SDS011;6055;52.522;13.446;2022-07-03T15:28:05;2.00;;;1.67;;
11990;SDS011;6055;52.522;13.446;2022-07-03T15:30:34;1.90;;;1.80;;
11990;SDS011;6055;52.522;13.446;2022-07-03T15:33:00;1.73;;;1.63;;
11990;SDS011;6055;52.522;13.446;2022-07-03T15:35:26;1.60;;;1.50;;
11990;SDS011;6055;52.522;13.446;2022-07-03T15:38:10;1.67;;;1.58;;
11990;SDS011;6055;52.522;13.446;2022-07-03T15:46:25;1.90;;;1.80;;
11990;SDS011;6055;52.522;13.446;2022-07-03T15:51:52;2.55;;;1.83;;
11990;SDS011;6055;52.522;13.446;2022-07-03T15:57:17;1.90;;;1.52;;
11990;SDS011;6055;52.522;13.446;2022-07-03T15:59:56;1.77;;;1.67;;
11990;SDS011;6055;52.522;13.446;2022-07-03T16:02:25;1.80;;;1.70;;
11990;SDS011;6055;52.522;13.446;2022-07-03T16:07:30;2.13;;;2.00;;
11990;SDS011;6055;52.522;13.446;2022-07-03T16:10:00;1.70;;;1.60;;
11990;SDS011;6055;52.522;13.446;2022-07-03T16:12:27;2.63;;;1.80;;
11990;SDS011;6055;52.522;13.446;2022-07-03T16:14:53;2.25;;;2.05;;
11990;SDS011;6055;52.522;13.446;2022-07-03T16:17:19;1.90;;;1.80;;
11990;SDS011;6055;52.522;13.446;2022-07-03T16:19:46;1.67;;;1.58;;
11990;SDS011;6055;52.522;13.446;2022-07-03T16:22:13;3.28;;;1.73;;
11990;SDS011;6055;52.522;13.446;2022-07-03T16:24:40;2.00;;;1.80;;
11990;SDS011;6055;52.522;13.446;2022-07-03T16:27:10;2.70;;;1.80;;
11990;SDS011;6055;52.522;13.446;2022-07-03T16:29:37;1.88;;;1.77;;
11990;SDS011;6055;52.522;13.446;2022-07-03T16:32:02;1.88;;;1.70;;
11990;SDS011;6055;52.522;13.446;2022-07-03T16:34:45;2.80;;;2.55;;
11990;SDS011;6055;52.522;13.446;2022-07-03T16:37:24;2.05;;;1.88;;
11990;SDS011;6055;52.522;13.446;2022-07-03T16:39:54;1.95;;;1.80;;
11990;SDS011;6055;52.522;13.446;2022-07-03T16:42:25;3.25;;;2.00;;
11990;SDS011;6055;52.522;13.446;2022-07-03T16:44:57;3.10;;;2.80;;
11990;SDS011;6055;52.522;13.446;2022-07-03T16:47:28;2.50;;;2.30;;